sensor_id;sensor_type;location;lat;lon;timestamp;P1;durP1;ratioP1;P2;durP2;ratioP2
33254;SDS011;19623;52.482;9.762;2022-08-19T00:00:13;509.25;;;460.75;;
33254;SDS011;19623;52.482;9.762;2022-08-19T00:02:40;559.05;;;504.80;;
33254;SDS011;19623;52.482;9.762;2022-08-19T00:05:07;654.80;;;537.25;;
33254;SDS011;19623;52.482;9.762;2022-08-19T00:07:34;695.58;;;505.95;;
33254;SDS011;19623;52.482;9.762;2022-08-19T00:10:00;608.58;;;528.15;;
33254;SDS011;19623;52.482;9.762;2022-08-19T00:12:26;219.75;;;203.77;;
33254;SDS011;19623;52.482;9.762;2022-08-19T00:14:52;143.32;;;131.35;;
33254;SDS011;19623;52.482;9.762;2022-08-19T00:17:19;318.25;;;291.98;;
33254;SDS011;19623;52.482;9.762;2022-08-19T00:19:45;436.27;;;395.83;;
33254;SDS011;19623;52.482;9.762;2022-08-19T00:22:10;467.23;;;427.13;;
33254;SDS011;19623;52.482;9.762;2022-08-19T00:24:36;535.17;;;483.27;;
33254;SDS011;19623;52.482;9.762;2022-08-19T00:27:03;566.25;;;516.13;;
33254;SDS011;19623;52.482;9.762;2022-08-19T00:29:29;590.33;;;530.55;;
33254;SDS011;19623;52.482;9.762;2022-08-19T00:31:55;610.78;;;536.58;;
33254;SDS011;19623;52.482;9.762;2022-08-19T00:34:23;380.95;;;350.10;;
33254;SDS011;19623;52.482;9.762;2022-08-19T00:36:53;481.52;;;439.83;;
33254;SDS011;19623;52.482;9.762;2022-08-19T00:39:18;575.63;;;521.17;;
33254;SDS011;19623;52.482;9.762;2022-08-19T00:41:44;543.58;;;492.15;;
33254;SDS011;19623;52.482;9.762;2022-08-19T00:44:15;364.23;;;334.80;;
33254;SDS011;19623;52.482;9.762;2022-08-19T00:46:47;519.78;;;471.50;;
33254;SDS011;19623;52.482;9.762;2022-08-19T00:49:37;459.65;;;415.80;;
33254;SDS011;19623;52.482;9.762;2022-08-19T00:52:11;359.83;;;327.65;;
33254;SDS011;19623;52.482;9.762;2022-08-19T00:54:40;73.53;;;67.57;;
33254;SDS011;19623;52.482;9.762;2022-08-19T00:57:08;437.15;;;393.70;;
33254;SDS011;19623;52.482;9.762;2022-08-19T00:59:40;539.63;;;482.58;;
33254;SDS011;19623;52.482;9.762;2022-08-19T01:02:08;12.73;;;8.13;;
33254;SDS011;19623;52.482;9.762;2022-08-19T01:04:34;11.00;;;8.07;;
33254;SDS011;19623;52.482;9.762;2022-08-19T01:07:00;13.52;;;8.40;;
33254;SDS011;19623;52.482;9.762;2022-08-19T01:09:27;13.30;;;8.73;;
33254;SDS011;19623;52.482;9.762;2022-08-19T01:11:53;14.45;;;9.13;;
33254;SDS011;19623;52.482;9.762;2022-08-19T01:14:20;17.15;;;9.48;;
33254;SDS011;19623;52.482;9.762;2022-08-19T01:16:46;12.05;;;9.07;;
33254;SDS011;19623;52.482;9.762;2022-08-19T01:19:35;13.02;;;8.10;;
33254;SDS011;19623;52.482;9.762;2022-08-19T01:22:03;18.88;;;9.65;;
33254;SDS011;19623;52.482;9.762;2022-08-19T01:24:49;16.30;;;10.13;;
33254;SDS011;19623;52.482;9.762;2022-08-19T01:27:16;13.32;;;9.23;;
33254;SDS011;19623;52.482;9.762;2022-08-19T01:29:43;15.80;;;9.75;;
33254;SDS011;19623;52.482;9.762;2022-08-19T01:32:11;17.27;;;9.25;;
33254;SDS011;19623;52.482;9.762;2022-08-19T01:34:39;13.77;;;10.30;;
33254;SDS011;19623;52.482;9.762;2022-08-19T01:37:09;16.60;;;10.20;;
33254;SDS011;19623;52.482;9.762;2022-08-19T01:39:36;12.85;;;9.85;;
33254;SDS011;19623;52.482;9.762;2022-08-19T01:42:02;16.50;;;10.18;;
33254;SDS011;19623;52.482;9.762;2022-08-19T01:44:29;15.45;;;9.95;;
33254;SDS011;19623;52.482;9.762;2022-08-19T01:46:54;15.05;;;10.15;;
33254;SDS011;19623;52.482;9.762;2022-08-19T01:49:21;15.50;;;10.30;;
33254;SDS011;19623;52.482;9.762;2022-08-19T01:51:50;16.45;;;10.23;;
33254;SDS011;19623;52.482;9.762;2022-08-19T01:54:16;18.00;;;11.05;;
33254;SDS011;19623;52.482;9.762;2022-08-19T01:56:43;14.10;;;9.55;;
33254;SDS011;19623;52.482;9.762;2022-08-19T01:59:19;15.32;;;9.82;;
33254;SDS011;19623;52.482;9.762;2022-08-19T02:01:46;20.02;;;9.98;;
33254;SDS011;19623;52.482;9.762;2022-08-19T02:04:12;14.27;;;9.95;;
33254;SDS011;19623;52.482;9.762;2022-08-19T02:06:37;12.95;;;10.07;;
33254;SDS011;19623;52.482;9.762;2022-08-19T02:09:04;15.73;;;10.75;;
33254;SDS011;19623;52.482;9.762;2022-08-19T02:11:31;16.85;;;10.65;;
33254;SDS011;19623;52.482;9.762;2022-08-19T02:13:59;15.40;;;11.07;;
33254;SDS011;19623;52.482;9.762;2022-08-19T02:18:55;15.43;;;10.52;;
33254;SDS011;19623;52.482;9.762;2022-08-19T02:21:22;13.68;;;10.88;;
33254;SDS011;19623;52.482;9.762;2022-08-19T02:23:48;16.17;;;9.70;;
33254;SDS011;19623;52.482;9.762;2022-08-19T02:26:15;16.02;;;10.10;;
33254;SDS011;19623;52.482;9.762;2022-08-19T02:28:41;16.05;;;11.30;;
33254;SDS011;19623;52.482;9.762;2022-08-19T02:31:09;19.38;;;11.00;;
33254;SDS011;19623;52.482;9.762;2022-08-19T02:33:37;18.65;;;10.85;;
33254;SDS011;19623;52.482;9.762;2022-08-19T02:36:03;16.08;;;9.88;;
33254;SDS011;19623;52.482;9.762;2022-08-19T02:38:30;13.05;;;8.98;;
33254;SDS011;19623;52.482;9.762;2022-08-19T02:41:06;16.92;;;10.57;;
33254;SDS011;19623;52.482;9.762;2022-08-19T02:43:36;19.43;;;10.70;;
33254;SDS011;19623;52.482;9.762;2022-08-19T02:46:10;16.40;;;10.75;;
33254;SDS011;19623;52.482;9.762;2022-08-19T02:48:38;16.58;;;9.98;;
33254;SDS011;19623;52.482;9.762;2022-08-19T02:51:03;18.48;;;10.23;;
33254;SDS011;19623;52.482;9.762;2022-08-19T02:53:30;18.42;;;10.30;;
33254;SDS011;19623;52.482;9.762;2022-08-19T02:55:56;16.33;;;10.07;;
33254;SDS011;19623;52.482;9.762;2022-08-19T02:58:21;17.13;;;10.18;;
33254;SDS011;19623;52.482;9.762;2022-08-19T03:00:49;14.43;;;9.20;;
33254;SDS011;19623;52.482;9.762;2022-08-19T03:03:17;17.65;;;9.93;;
33254;SDS011;19623;52.482;9.762;2022-08-19T03:05:44;17.17;;;10.20;;
33254;SDS011;19623;52.482;9.762;2022-08-19T03:08:10;15.95;;;10.25;;
33254;SDS011;19623;52.482;9.762;2022-08-19T03:10:46;13.77;;;9.80;;
33254;SDS011;19623;52.482;9.762;2022-08-19T03:13:13;15.98;;;9.30;;
33254;SDS011;19623;52.482;9.762;2022-08-19T03:15:45;15.48;;;10.32;;
33254;SDS011;19623;52.482;9.762;2022-08-19T03:18:12;16.80;;;10.80;;
33254;SDS011;19623;52.482;9.762;2022-08-19T03:20:42;16.00;;;9.93;;
33254;SDS011;19623;52.482;9.762;2022-08-19T03:23:15;15.27;;;10.18;;
33254;SDS011;19623;52.482;9.762;2022-08-19T03:25:42;14.48;;;10.20;;
33254;SDS011;19623;52.482;9.762;2022-08-19T03:28:10;17.00;;;10.60;;
33254;SDS011;19623;52.482;9.762;2022-08-19T03:30:37;16.98;;;10.25;;
33254;SDS011;19623;52.482;9.762;2022-08-19T03:33:05;19.58;;;11.23;;
33254;SDS011;19623;52.482;9.762;2022-08-19T03:35:31;16.73;;;10.55;;
33254;SDS011;19623;52.482;9.762;2022-08-19T03:37:58;15.70;;;10.45;;
33254;SDS011;19623;52.482;9.762;2022-08-19T03:40:24;17.15;;;10.73;;
33254;SDS011;19623;52.482;9.762;2022-08-19T03:42:50;21.40;;;10.98;;
33254;SDS011;19623;52.482;9.762;2022-08-19T03:45:16;16.75;;;10.75;;
33254;SDS011;19623;52.482;9.762;2022-08-19T03:47:42;15.75;;;10.35;;
33254;SDS011;19623;52.482;9.762;2022-08-19T03:50:08;18.25;;;11.07;;
33254;SDS011;19623;52.482;9.762;2022-08-19T03:52:34;21.17;;;10.80;;
33254;SDS011;19623;52.482;9.762;2022-08-19T03:55:01;19.42;;;10.88;;
33254;SDS011;19623;52.482;9.762;2022-08-19T03:57:27;18.05;;;11.52;;
33254;SDS011;19623;52.482;9.762;2022-08-19T03:59:53;17.95;;;9.85;;
33254;SDS011;19623;52.482;9.762;2022-08-19T04:02:18;17.52;;;9.90;;
33254;SDS011;19623;52.482;9.762;2022-08-19T04:04:45;14.07;;;10.30;;
33254;SDS011;19623;52.482;9.762;2022-08-19T04:07:11;17.60;;;10.52;;
33254;SDS011;19623;52.482;9.762;2022-08-19T04:09:41;20.63;;;9.43;;
33254;SDS011;19623;52.482;9.762;2022-08-19T04:12:07;22.30;;;10.68;;
33254;SDS011;19623;52.482;9.762;2022-08-19T04:14:33;17.20;;;9.80;;
33254;SDS011;19623;52.482;9.762;2022-08-19T04:17:00;15.68;;;9.32;;
33254;SDS011;19623;52.482;9.762;2022-08-19T04:19:26;14.38;;;9.50;;
33254;SDS011;19623;52.482;9.762;2022-08-19T04:21:54;18.63;;;9.18;;
33254;SDS011;19623;52.482;9.762;2022-08-19T04:24:21;16.60;;;9.07;;
33254;SDS011;19623;52.482;9.762;2022-08-19T04:26:47;21.83;;;8.80;;
33254;SDS011;19623;52.482;9.762;2022-08-19T04:29:14;14.13;;;9.35;;
33254;SDS011;19623;52.482;9.762;2022-08-19T04:31:42;17.70;;;8.73;;
33254;SDS011;19623;52.482;9.762;2022-08-19T04:34:09;13.10;;;9.55;;
33254;SDS011;19623;52.482;9.762;2022-08-19T04:36:39;19.15;;;10.95;;
33254;SDS011;19623;52.482;9.762;2022-08-19T04:39:07;14.60;;;10.15;;
33254;SDS011;19623;52.482;9.762;2022-08-19T04:41:36;12.73;;;9.50;;
33254;SDS011;19623;52.482;9.762;2022-08-19T04:44:20;15.95;;;10.20;;
33254;SDS011;19623;52.482;9.762;2022-08-19T04:46:47;15.02;;;9.90;;
33254;SDS011;19623;52.482;9.762;2022-08-19T04:49:14;15.52;;;10.38;;
33254;SDS011;19623;52.482;9.762;2022-08-19T04:51:43;16.48;;;11.20;;
33254;SDS011;19623;52.482;9.762;2022-08-19T04:54:10;16.27;;;10.80;;
33254;SDS011;19623;52.482;9.762;2022-08-19T04:56:37;15.35;;;10.40;;
33254;SDS011;19623;52.482;9.762;2022-08-19T04:59:04;18.83;;;10.77;;
33254;SDS011;19623;52.482;9.762;2022-08-19T05:01:30;18.48;;;10.73;;
33254;SDS011;19623;52.482;9.762;2022-08-19T05:03:58;14.23;;;9.68;;
33254;SDS011;19623;52.482;9.762;2022-08-19T05:06:25;17.15;;;10.23;;
33254;SDS011;19623;52.482;9.762;2022-08-19T05:08:52;15.15;;;10.95;;
33254;SDS011;19623;52.482;9.762;2022-08-19T05:11:20;16.88;;;10.75;;
33254;SDS011;19623;52.482;9.762;2022-08-19T05:13:53;18.23;;;11.05;;
33254;SDS011;19623;52.482;9.762;2022-08-19T05:16:19;21.95;;;11.75;;
33254;SDS011;19623;52.482;9.762;2022-08-19T05:18:46;19.08;;;12.25;;
33254;SDS011;19623;52.482;9.762;2022-08-19T05:21:31;17.23;;;11.02;;
33254;SDS011;19623;52.482;9.762;2022-08-19T05:24:16;16.67;;;11.75;;
33254;SDS011;19623;52.482;9.762;2022-08-19T05:26:43;17.90;;;11.98;;
33254;SDS011;19623;52.482;9.762;2022-08-19T05:29:12;20.80;;;12.65;;
33254;SDS011;19623;52.482;9.762;2022-08-19T05:31:38;17.80;;;11.95;;
33254;SDS011;19623;52.482;9.762;2022-08-19T05:34:05;20.88;;;12.27;;
33254;SDS011;19623;52.482;9.762;2022-08-19T05:36:34;17.92;;;11.57;;
33254;SDS011;19623;52.482;9.762;2022-08-19T05:39:09;20.13;;;12.27;;
33254;SDS011;19623;52.482;9.762;2022-08-19T05:41:42;19.48;;;12.13;;
33254;SDS011;19623;52.482;9.762;2022-08-19T05:44:09;17.92;;;11.70;;
33254;SDS011;19623;52.482;9.762;2022-08-19T05:46:38;19.13;;;14.25;;
33254;SDS011;19623;52.482;9.762;2022-08-19T05:49:07;18.08;;;12.63;;
33254;SDS011;19623;52.482;9.762;2022-08-19T05:51:34;18.48;;;13.35;;
33254;SDS011;19623;52.482;9.762;2022-08-19T05:54:02;16.08;;;12.30;;
33254;SDS011;19623;52.482;9.762;2022-08-19T05:56:29;23.15;;;13.35;;
33254;SDS011;19623;52.482;9.762;2022-08-19T05:58:55;20.92;;;12.93;;
33254;SDS011;19623;52.482;9.762;2022-08-19T06:01:23;20.25;;;12.38;;
33254;SDS011;19623;52.482;9.762;2022-08-19T06:03:49;18.50;;;12.35;;
33254;SDS011;19623;52.482;9.762;2022-08-19T06:06:16;25.25;;;13.43;;
33254;SDS011;19623;52.482;9.762;2022-08-19T06:08:42;23.55;;;12.88;;
33254;SDS011;19623;52.482;9.762;2022-08-19T06:13:51;17.17;;;11.98;;
33254;SDS011;19623;52.482;9.762;2022-08-19T06:16:19;20.45;;;11.98;;
33254;SDS011;19623;52.482;9.762;2022-08-19T06:18:48;17.88;;;11.88;;
33254;SDS011;19623;52.482;9.762;2022-08-19T06:21:17;18.73;;;11.15;;
33254;SDS011;19623;52.482;9.762;2022-08-19T06:23:46;20.85;;;11.23;;
33254;SDS011;19623;52.482;9.762;2022-08-19T06:26:12;20.75;;;12.07;;
33254;SDS011;19623;52.482;9.762;2022-08-19T06:28:40;15.50;;;10.50;;
33254;SDS011;19623;52.482;9.762;2022-08-19T06:31:12;17.13;;;11.15;;
33254;SDS011;19623;52.482;9.762;2022-08-19T06:33:39;18.98;;;11.57;;
33254;SDS011;19623;52.482;9.762;2022-08-19T06:36:07;18.45;;;10.77;;
33254;SDS011;19623;52.482;9.762;2022-08-19T06:38:40;18.23;;;10.45;;
33254;SDS011;19623;52.482;9.762;2022-08-19T06:41:06;19.13;;;11.55;;
33254;SDS011;19623;52.482;9.762;2022-08-19T06:43:31;20.27;;;11.32;;
33254;SDS011;19623;52.482;9.762;2022-08-19T06:45:57;19.50;;;11.85;;
33254;SDS011;19623;52.482;9.762;2022-08-19T06:48:23;21.67;;;11.95;;
33254;SDS011;19623;52.482;9.762;2022-08-19T06:50:49;17.30;;;11.52;;
33254;SDS011;19623;52.482;9.762;2022-08-19T06:53:16;15.25;;;10.95;;
33254;SDS011;19623;52.482;9.762;2022-08-19T06:55:44;23.60;;;12.07;;
33254;SDS011;19623;52.482;9.762;2022-08-19T06:58:10;19.83;;;12.43;;
33254;SDS011;19623;52.482;9.762;2022-08-19T07:00:36;17.98;;;11.45;;
33254;SDS011;19623;52.482;9.762;2022-08-19T07:03:02;19.45;;;11.10;;
33254;SDS011;19623;52.482;9.762;2022-08-19T07:05:28;16.90;;;12.80;;
33254;SDS011;19623;52.482;9.762;2022-08-19T07:07:53;17.67;;;13.18;;
33254;SDS011;19623;52.482;9.762;2022-08-19T07:10:19;19.27;;;13.75;;
33254;SDS011;19623;52.482;9.762;2022-08-19T07:12:45;18.65;;;12.35;;
33254;SDS011;19623;52.482;9.762;2022-08-19T07:15:11;21.10;;;12.98;;
33254;SDS011;19623;52.482;9.762;2022-08-19T07:17:37;21.45;;;12.20;;
33254;SDS011;19623;52.482;9.762;2022-08-19T07:20:04;22.35;;;13.57;;
33254;SDS011;19623;52.482;9.762;2022-08-19T07:22:32;17.05;;;13.45;;
33254;SDS011;19623;52.482;9.762;2022-08-19T07:24:59;21.52;;;13.85;;
33254;SDS011;19623;52.482;9.762;2022-08-19T07:27:25;27.10;;;15.02;;
33254;SDS011;19623;52.482;9.762;2022-08-19T07:29:53;19.73;;;14.00;;
33254;SDS011;19623;52.482;9.762;2022-08-19T07:32:19;22.08;;;13.32;;
33254;SDS011;19623;52.482;9.762;2022-08-19T07:34:45;19.92;;;13.38;;
33254;SDS011;19623;52.482;9.762;2022-08-19T07:37:10;20.17;;;14.07;;
33254;SDS011;19623;52.482;9.762;2022-08-19T07:39:37;21.70;;;15.18;;
33254;SDS011;19623;52.482;9.762;2022-08-19T07:42:05;21.98;;;13.77;;
33254;SDS011;19623;52.482;9.762;2022-08-19T07:46:59;17.98;;;13.20;;
33254;SDS011;19623;52.482;9.762;2022-08-19T07:49:26;21.55;;;14.55;;
33254;SDS011;19623;52.482;9.762;2022-08-19T07:51:54;26.10;;;13.45;;
33254;SDS011;19623;52.482;9.762;2022-08-19T07:54:22;280.13;;;36.20;;
33254;SDS011;19623;52.482;9.762;2022-08-19T07:56:50;29.98;;;13.52;;
33254;SDS011;19623;52.482;9.762;2022-08-19T07:59:16;14.43;;;10.25;;
33254;SDS011;19623;52.482;9.762;2022-08-19T08:01:43;16.52;;;11.35;;
33254;SDS011;19623;52.482;9.762;2022-08-19T08:04:09;22.67;;;10.10;;
33254;SDS011;19623;52.482;9.762;2022-08-19T08:06:53;17.02;;;10.63;;
33254;SDS011;19623;52.482;9.762;2022-08-19T08:09:39;14.65;;;9.93;;
33254;SDS011;19623;52.482;9.762;2022-08-19T08:12:08;12.75;;;10.07;;
33254;SDS011;19623;52.482;9.762;2022-08-19T08:14:47;35.25;;;11.27;;
33254;SDS011;19623;52.482;9.762;2022-08-19T08:17:15;15.77;;;9.73;;
33254;SDS011;19623;52.482;9.762;2022-08-19T08:19:43;11.32;;;7.55;;
33254;SDS011;19623;52.482;9.762;2022-08-19T08:22:09;15.13;;;8.98;;
33254;SDS011;19623;52.482;9.762;2022-08-19T08:25:06;13.60;;;7.97;;
33254;SDS011;19623;52.482;9.762;2022-08-19T08:27:38;10.48;;;7.82;;
33254;SDS011;19623;52.482;9.762;2022-08-19T08:30:08;11.00;;;7.60;;
33254;SDS011;19623;52.482;9.762;2022-08-19T08:32:38;9.98;;;7.75;;
33254;SDS011;19623;52.482;9.762;2022-08-19T08:35:05;11.50;;;7.57;;
33254;SDS011;19623;52.482;9.762;2022-08-19T08:37:31;11.32;;;8.15;;
33254;SDS011;19623;52.482;9.762;2022-08-19T08:39:57;12.15;;;7.38;;
33254;SDS011;19623;52.482;9.762;2022-08-19T08:42:24;10.65;;;7.88;;
33254;SDS011;19623;52.482;9.762;2022-08-19T08:44:58;10.68;;;6.82;;
33254;SDS011;19623;52.482;9.762;2022-08-19T08:47:30;14.52;;;7.30;;
33254;SDS011;19623;52.482;9.762;2022-08-19T08:52:35;8.95;;;6.03;;
33254;SDS011;19623;52.482;9.762;2022-08-19T08:55:11;9.40;;;6.47;;
33254;SDS011;19623;52.482;9.762;2022-08-19T09:00:18;12.38;;;7.35;;
33254;SDS011;19623;52.482;9.762;2022-08-19T09:02:47;12.95;;;6.18;;
33254;SDS011;19623;52.482;9.762;2022-08-19T09:05:13;8.68;;;6.45;;
33254;SDS011;19623;52.482;9.762;2022-08-19T09:10:44;11.90;;;6.88;;
33254;SDS011;19623;52.482;9.762;2022-08-19T09:16:02;10.68;;;7.03;;
33254;SDS011;19623;52.482;9.762;2022-08-19T09:21:08;14.25;;;7.25;;
33254;SDS011;19623;52.482;9.762;2022-08-19T09:23:34;12.25;;;8.13;;
33254;SDS011;19623;52.482;9.762;2022-08-19T09:26:00;10.52;;;6.90;;
33254;SDS011;19623;52.482;9.762;2022-08-19T09:28:27;7.45;;;6.53;;
33254;SDS011;19623;52.482;9.762;2022-08-19T09:30:54;8.82;;;6.53;;
33254;SDS011;19623;52.482;9.762;2022-08-19T09:33:19;9.93;;;7.68;;
33254;SDS011;19623;52.482;9.762;2022-08-19T09:35:45;9.77;;;6.78;;
33254;SDS011;19623;52.482;9.762;2022-08-19T09:38:11;8.52;;;6.53;;
33254;SDS011;19623;52.482;9.762;2022-08-19T09:40:37;9.13;;;6.50;;
33254;SDS011;19623;52.482;9.762;2022-08-19T09:43:03;9.55;;;6.25;;
33254;SDS011;19623;52.482;9.762;2022-08-19T09:45:30;8.30;;;6.30;;
33254;SDS011;19623;52.482;9.762;2022-08-19T09:47:56;7.20;;;5.78;;
33254;SDS011;19623;52.482;9.762;2022-08-19T09:50:22;9.15;;;5.50;;
33254;SDS011;19623;52.482;9.762;2022-08-19T09:52:48;10.27;;;5.82;;
33254;SDS011;19623;52.482;9.762;2022-08-19T09:55:14;8.98;;;5.53;;
33254;SDS011;19623;52.482;9.762;2022-08-19T09:57:41;8.30;;;5.50;;
33254;SDS011;19623;52.482;9.762;2022-08-19T10:00:07;7.50;;;5.60;;
33254;SDS011;19623;52.482;9.762;2022-08-19T10:02:34;6.82;;;5.18;;
33254;SDS011;19623;52.482;9.762;2022-08-19T10:05:00;8.63;;;5.30;;
33254;SDS011;19623;52.482;9.762;2022-08-19T10:07:45;6.95;;;5.55;;
33254;SDS011;19623;52.482;9.762;2022-08-19T10:10:10;8.02;;;5.75;;
33254;SDS011;19623;52.482;9.762;2022-08-19T10:12:36;7.78;;;5.45;;
33254;SDS011;19623;52.482;9.762;2022-08-19T10:15:02;7.18;;;5.55;;
33254;SDS011;19623;52.482;9.762;2022-08-19T10:17:31;7.20;;;5.00;;
33254;SDS011;19623;52.482;9.762;2022-08-19T10:19:58;7.97;;;5.25;;
33254;SDS011;19623;52.482;9.762;2022-08-19T10:22:24;9.30;;;5.18;;
33254;SDS011;19623;52.482;9.762;2022-08-19T10:24:50;7.18;;;5.40;;
33254;SDS011;19623;52.482;9.762;2022-08-19T10:27:16;7.18;;;5.32;;
33254;SDS011;19623;52.482;9.762;2022-08-19T10:29:42;6.40;;;5.68;;
33254;SDS011;19623;52.482;9.762;2022-08-19T10:32:08;11.00;;;5.82;;
33254;SDS011;19623;52.482;9.762;2022-08-19T10:34:35;6.25;;;5.63;;
33254;SDS011;19623;52.482;9.762;2022-08-19T10:37:02;7.32;;;5.30;;
33254;SDS011;19623;52.482;9.762;2022-08-19T10:39:31;7.00;;;4.88;;
33254;SDS011;19623;52.482;9.762;2022-08-19T10:41:58;7.40;;;5.18;;
33254;SDS011;19623;52.482;9.762;2022-08-19T10:44:24;7.13;;;4.60;;
33254;SDS011;19623;52.482;9.762;2022-08-19T10:46:50;5.85;;;4.70;;
33254;SDS011;19623;52.482;9.762;2022-08-19T10:49:17;6.65;;;5.28;;
33254;SDS011;19623;52.482;9.762;2022-08-19T10:51:44;7.07;;;4.97;;
33254;SDS011;19623;52.482;9.762;2022-08-19T10:54:28;7.13;;;4.43;;
33254;SDS011;19623;52.482;9.762;2022-08-19T10:57:12;4.70;;;4.07;;
33254;SDS011;19623;52.482;9.762;2022-08-19T10:59:38;8.65;;;4.30;;
33254;SDS011;19623;52.482;9.762;2022-08-19T11:02:05;6.68;;;4.65;;
33254;SDS011;19623;52.482;9.762;2022-08-19T11:04:34;5.30;;;4.45;;
33254;SDS011;19623;52.482;9.762;2022-08-19T11:07:01;6.68;;;4.70;;
33254;SDS011;19623;52.482;9.762;2022-08-19T11:09:28;6.65;;;5.20;;
33254;SDS011;19623;52.482;9.762;2022-08-19T11:11:54;5.32;;;4.60;;
33254;SDS011;19623;52.482;9.762;2022-08-19T11:14:21;5.57;;;4.40;;
33254;SDS011;19623;52.482;9.762;2022-08-19T11:16:49;6.00;;;4.63;;
33254;SDS011;19623;52.482;9.762;2022-08-19T11:19:15;6.80;;;4.20;;
33254;SDS011;19623;52.482;9.762;2022-08-19T11:21:44;8.80;;;4.07;;
33254;SDS011;19623;52.482;9.762;2022-08-19T11:24:12;5.15;;;4.20;;
33254;SDS011;19623;52.482;9.762;2022-08-19T11:26:45;6.95;;;4.63;;
33254;SDS011;19623;52.482;9.762;2022-08-19T11:29:12;9.55;;;4.00;;
33254;SDS011;19623;52.482;9.762;2022-08-19T11:31:39;5.28;;;3.78;;
33254;SDS011;19623;52.482;9.762;2022-08-19T11:34:07;6.05;;;3.90;;
33254;SDS011;19623;52.482;9.762;2022-08-19T11:36:37;7.43;;;3.65;;
33254;SDS011;19623;52.482;9.762;2022-08-19T11:39:04;5.25;;;3.60;;
33254;SDS011;19623;52.482;9.762;2022-08-19T11:41:32;7.78;;;3.22;;
33254;SDS011;19623;52.482;9.762;2022-08-19T11:43:58;4.43;;;2.88;;
33254;SDS011;19623;52.482;9.762;2022-08-19T11:46:25;3.72;;;3.20;;
33254;SDS011;19623;52.482;9.762;2022-08-19T11:48:54;6.57;;;3.30;;
33254;SDS011;19623;52.482;9.762;2022-08-19T11:51:21;5.10;;;3.38;;
33254;SDS011;19623;52.482;9.762;2022-08-19T11:53:49;3.65;;;2.67;;
33254;SDS011;19623;52.482;9.762;2022-08-19T11:56:15;3.80;;;3.05;;
33254;SDS011;19623;52.482;9.762;2022-08-19T11:58:42;2.97;;;2.50;;
33254;SDS011;19623;52.482;9.762;2022-08-19T12:01:08;3.38;;;2.70;;
33254;SDS011;19623;52.482;9.762;2022-08-19T12:03:36;5.03;;;3.47;;
33254;SDS011;19623;52.482;9.762;2022-08-19T12:06:05;5.65;;;3.33;;
33254;SDS011;19623;52.482;9.762;2022-08-19T12:08:32;5.25;;;2.97;;
33254;SDS011;19623;52.482;9.762;2022-08-19T12:10:58;3.20;;;2.30;;
33254;SDS011;19623;52.482;9.762;2022-08-19T12:13:26;4.97;;;2.90;;
33254;SDS011;19623;52.482;9.762;2022-08-19T12:15:53;4.60;;;2.60;;
33254;SDS011;19623;52.482;9.762;2022-08-19T12:18:19;5.20;;;3.03;;
33254;SDS011;19623;52.482;9.762;2022-08-19T12:20:45;3.30;;;3.00;;
33254;SDS011;19623;52.482;9.762;2022-08-19T12:23:11;4.20;;;2.83;;
33254;SDS011;19623;52.482;9.762;2022-08-19T12:25:37;3.85;;;2.65;;
33254;SDS011;19623;52.482;9.762;2022-08-19T12:28:14;3.88;;;2.53;;
33254;SDS011;19623;52.482;9.762;2022-08-19T12:30:41;5.60;;;2.70;;
33254;SDS011;19623;52.482;9.762;2022-08-19T12:33:07;3.17;;;2.20;;
33254;SDS011;19623;52.482;9.762;2022-08-19T12:35:33;3.05;;;2.20;;
33254;SDS011;19623;52.482;9.762;2022-08-19T12:37:58;5.80;;;2.80;;
33254;SDS011;19623;52.482;9.762;2022-08-19T12:40:26;5.05;;;2.42;;
33254;SDS011;19623;52.482;9.762;2022-08-19T12:42:53;4.57;;;2.90;;
33254;SDS011;19623;52.482;9.762;2022-08-19T12:45:19;5.63;;;2.60;;
33254;SDS011;19623;52.482;9.762;2022-08-19T12:47:45;3.30;;;3.00;;
33254;SDS011;19623;52.482;9.762;2022-08-19T12:50:11;3.90;;;2.78;;
33254;SDS011;19623;52.482;9.762;2022-08-19T12:52:37;4.05;;;2.78;;
33254;SDS011;19623;52.482;9.762;2022-08-19T12:55:03;5.30;;;3.00;;
33254;SDS011;19623;52.482;9.762;2022-08-19T12:57:30;4.68;;;2.50;;
33254;SDS011;19623;52.482;9.762;2022-08-19T13:00:00;5.03;;;2.50;;
33254;SDS011;19623;52.482;9.762;2022-08-19T13:02:34;4.75;;;2.50;;
33254;SDS011;19623;52.482;9.762;2022-08-19T13:05:01;3.17;;;2.40;;
33254;SDS011;19623;52.482;9.762;2022-08-19T13:07:27;3.90;;;2.67;;
33254;SDS011;19623;52.482;9.762;2022-08-19T13:09:53;5.78;;;3.17;;
33254;SDS011;19623;52.482;9.762;2022-08-19T13:12:18;3.35;;;2.70;;
33254;SDS011;19623;52.482;9.762;2022-08-19T13:14:45;3.00;;;2.67;;
33254;SDS011;19623;52.482;9.762;2022-08-19T13:17:14;5.68;;;2.63;;
33254;SDS011;19623;52.482;9.762;2022-08-19T13:19:40;3.65;;;2.40;;
33254;SDS011;19623;52.482;9.762;2022-08-19T13:22:06;3.05;;;2.58;;
33254;SDS011;19623;52.482;9.762;2022-08-19T13:24:32;4.90;;;2.20;;
33254;SDS011;19623;52.482;9.762;2022-08-19T13:26:58;5.68;;;2.42;;
33254;SDS011;19623;52.482;9.762;2022-08-19T13:29:24;4.60;;;2.50;;
33254;SDS011;19623;52.482;9.762;2022-08-19T13:32:08;3.30;;;2.38;;
33254;SDS011;19623;52.482;9.762;2022-08-19T13:34:52;2.80;;;2.30;;
33254;SDS011;19623;52.482;9.762;2022-08-19T13:37:18;3.75;;;2.75;;
33254;SDS011;19623;52.482;9.762;2022-08-19T13:40:04;4.38;;;2.50;;
33254;SDS011;19623;52.482;9.762;2022-08-19T13:42:30;4.85;;;2.85;;
33254;SDS011;19623;52.482;9.762;2022-08-19T13:44:56;3.97;;;2.45;;
33254;SDS011;19623;52.482;9.762;2022-08-19T13:47:23;3.25;;;2.22;;
33254;SDS011;19623;52.482;9.762;2022-08-19T13:49:49;2.47;;;2.00;;
33254;SDS011;19623;52.482;9.762;2022-08-19T13:52:15;4.07;;;2.30;;
33254;SDS011;19623;52.482;9.762;2022-08-19T13:54:41;4.38;;;2.20;;
33254;SDS011;19623;52.482;9.762;2022-08-19T13:57:06;3.15;;;2.05;;
33254;SDS011;19623;52.482;9.762;2022-08-19T13:59:32;2.17;;;1.90;;
33254;SDS011;19623;52.482;9.762;2022-08-19T14:01:59;6.97;;;1.80;;
33254;SDS011;19623;52.482;9.762;2022-08-19T14:04:25;3.55;;;1.92;;
33254;SDS011;19623;52.482;9.762;2022-08-19T14:06:50;6.03;;;2.30;;
33254;SDS011;19623;52.482;9.762;2022-08-19T14:09:16;5.32;;;1.98;;
33254;SDS011;19623;52.482;9.762;2022-08-19T14:11:42;7.28;;;2.30;;
33254;SDS011;19623;52.482;9.762;2022-08-19T14:14:10;4.00;;;2.28;;
33254;SDS011;19623;52.482;9.762;2022-08-19T14:16:36;3.78;;;1.90;;
33254;SDS011;19623;52.482;9.762;2022-08-19T14:19:01;3.10;;;1.60;;
33254;SDS011;19623;52.482;9.762;2022-08-19T14:21:27;1.58;;;1.48;;
33254;SDS011;19623;52.482;9.762;2022-08-19T14:23:53;5.85;;;2.05;;
33254;SDS011;19623;52.482;9.762;2022-08-19T14:26:19;2.22;;;1.65;;
33254;SDS011;19623;52.482;9.762;2022-08-19T14:28:46;3.20;;;1.50;;
33254;SDS011;19623;52.482;9.762;2022-08-19T14:31:12;3.58;;;1.42;;
33254;SDS011;19623;52.482;9.762;2022-08-19T14:33:43;2.88;;;1.60;;
33254;SDS011;19623;52.482;9.762;2022-08-19T14:36:08;1.63;;;1.45;;
33254;SDS011;19623;52.482;9.762;2022-08-19T14:38:34;2.30;;;1.60;;
33254;SDS011;19623;52.482;9.762;2022-08-19T14:43:42;5.47;;;1.60;;
33254;SDS011;19623;52.482;9.762;2022-08-19T14:46:11;3.63;;;1.55;;
33254;SDS011;19623;52.482;9.762;2022-08-19T14:48:38;3.15;;;1.90;;
33254;SDS011;19623;52.482;9.762;2022-08-19T14:51:04;2.30;;;1.40;;
33254;SDS011;19623;52.482;9.762;2022-08-19T14:53:31;1.98;;;1.50;;
33254;SDS011;19623;52.482;9.762;2022-08-19T14:55:58;2.08;;;1.33;;
33254;SDS011;19623;52.482;9.762;2022-08-19T14:58:24;4.25;;;1.52;;